createdAt,value
2019-03-23T00:00:13.563Z,86.71
2019-03-23T00:03:22.895Z,87.00
2019-03-23T00:06:43.713Z,86.92
2019-03-23T00:09:53.456Z,87.44
2019-03-23T00:13:02.889Z,87.04
2019-03-23T00:16:22.691Z,86.92
2019-03-23T00:19:33.951Z,86.94
2019-03-23T00:22:43.491Z,87.52
2019-03-23T00:25:52.954Z,87.48
2019-03-23T00:29:02.397Z,87.57
2019-03-23T00:32:12.012Z,87.49
2019-03-23T00:35:21.454Z,87.42
2019-03-23T00:38:41.236Z,87.58
2019-03-23T00:41:50.747Z,87.76
2019-03-23T00:45:00.339Z,88.10
2019-03-23T00:48:09.783Z,87.99
2019-03-23T00:51:19.234Z,87.78
2019-03-23T00:54:39.117Z,87.62
2019-03-23T00:57:48.537Z,87.71
2019-03-23T01:00:57.955Z,87.78
2019-03-23T01:04:17.752Z,87.71
2019-03-23T01:07:27.055Z,87.18
2019-03-23T01:10:36.669Z,87.29
2019-03-23T01:13:56.287Z,87.47
2019-03-23T01:17:05.933Z,87.56
2019-03-23T01:20:15.908Z,87.77
2019-03-23T01:23:25.332Z,87.80
2019-03-23T01:26:34.770Z,88.02
2019-03-23T01:29:44.205Z,88.13
2019-03-23T01:32:53.646Z,88.10
2019-03-23T01:36:13.650Z,88.00
2019-03-23T01:39:23.261Z,87.94
2019-03-23T01:42:32.711Z,87.95
2019-03-23T01:45:42.176Z,87.89
2019-03-23T01:48:51.583Z,87.65
2019-03-23T01:52:11.311Z,87.43
2019-03-23T01:55:20.747Z,87.62
2019-03-23T01:58:30.175Z,88.02
2019-03-23T02:01:49.899Z,87.71
2019-03-23T02:04:59.353Z,86.46
2019-03-23T02:08:08.800Z,86.63
2019-03-23T02:11:28.437Z,85.85
2019-03-23T02:14:49.509Z,85.71
2019-03-23T02:17:59.050Z,85.25
2019-03-23T02:21:08.438Z,84.90
2019-03-23T02:24:17.862Z,85.31
2019-03-23T02:27:27.281Z,85.37
2019-03-23T02:30:38.224Z,85.84
2019-03-23T02:33:47.762Z,85.97
2019-03-23T02:36:57.203Z,86.61
2019-03-23T02:40:08.770Z,86.81
2019-03-23T02:43:18.768Z,86.95
2019-03-23T02:46:28.090Z,86.87
2019-03-23T02:49:47.969Z,86.95
2019-03-23T02:52:57.462Z,86.99
2019-03-23T02:56:06.987Z,86.99
2019-03-23T02:59:26.493Z,86.74
2019-03-23T03:02:35.969Z,86.62
2019-03-23T03:05:45.476Z,85.89
2019-03-23T03:09:06.566Z,86.45
2019-03-23T03:12:16.047Z,86.06
2019-03-23T03:15:26.596Z,85.69
2019-03-23T03:18:36.116Z,85.28
2019-03-23T03:21:46.577Z,85.32
2019-03-23T03:24:56.140Z,85.83
2019-03-23T03:28:06.566Z,85.70
2019-03-23T03:31:15.902Z,85.76
2019-03-23T03:34:36.983Z,86.02
2019-03-23T03:37:56.534Z,85.74
2019-03-23T03:40:57.695Z,86.33
2019-03-23T03:44:17.418Z,85.82
2019-03-23T03:47:26.879Z,86.07
2019-03-23T03:50:36.272Z,85.57
2019-03-23T03:53:56.000Z,85.89
2019-03-23T03:57:05.432Z,84.33
2019-03-23T04:00:15.253Z,84.01
2019-03-23T04:03:24.609Z,84.44
2019-03-23T04:06:34.006Z,83.83
2019-03-23T04:09:55.231Z,84.11
2019-03-23T04:13:14.686Z,84.48
2019-03-23T04:16:24.143Z,84.60
2019-03-23T04:19:33.621Z,84.27
2019-03-23T04:22:53.311Z,84.43
2019-03-23T04:26:02.705Z,83.50
2019-03-23T04:29:12.230Z,83.82
2019-03-23T04:32:33.261Z,84.21
2019-03-23T04:35:42.689Z,84.26
2019-03-23T04:38:52.111Z,83.58
2019-03-23T04:42:11.929Z,84.31
2019-03-23T04:45:21.613Z,84.31
2019-03-23T04:48:31.072Z,84.18
2019-03-23T04:51:40.542Z,84.58
2019-03-23T04:54:50.062Z,84.41
2019-03-23T04:58:09.856Z,84.27
2019-03-23T05:01:19.310Z,84.62
2019-03-23T05:04:28.740Z,84.78
2019-03-23T05:07:38.470Z,84.16
2019-03-23T05:10:48.061Z,84.50
2019-03-23T05:13:57.361Z,84.32
2019-03-23T05:17:08.710Z,84.33
2019-03-23T05:20:30.882Z,84.66
2019-03-23T05:23:41.733Z,84.43
2019-03-23T05:27:01.439Z,84.79
2019-03-23T05:30:11.102Z,84.51
2019-03-23T05:33:20.490Z,84.42
2019-03-23T05:36:29.923Z,84.37
2019-03-23T05:39:39.440Z,83.97
2019-03-23T05:42:59.028Z,83.66
2019-03-23T05:46:08.456Z,83.72
2019-03-23T05:49:17.849Z,83.81
2019-03-23T05:52:37.574Z,83.56
2019-03-23T05:55:46.996Z,83.79
2019-03-23T05:58:56.492Z,84.03
2019-03-23T06:02:16.142Z,83.99
2019-03-23T06:05:25.864Z,83.87
2019-03-23T06:08:35.344Z,83.68
2019-03-23T06:11:44.768Z,83.38
2019-03-23T06:14:54.267Z,83.35
2019-03-23T06:18:13.890Z,83.41
2019-03-23T06:21:23.309Z,83.02
2019-03-23T06:24:32.736Z,82.70
2019-03-23T06:27:41.782Z,82.83
2019-03-23T06:31:01.231Z,82.61
2019-03-23T06:34:10.628Z,82.72
2019-03-23T06:37:20.053Z,83.06
2019-03-23T06:40:39.808Z,82.93
2019-03-23T06:43:49.704Z,82.71
2019-03-23T06:47:09.726Z,82.42
2019-03-23T06:50:19.266Z,82.66
2019-03-23T06:53:28.679Z,82.68
2019-03-23T06:56:38.230Z,82.85
2019-03-23T06:59:47.729Z,81.97
2019-03-23T07:03:07.435Z,82.41
2019-03-23T07:06:16.881Z,82.24
2019-03-23T07:09:26.276Z,82.18
2019-03-23T07:12:35.777Z,82.44
2019-03-23T07:15:45.183Z,82.64
2019-03-23T07:18:54.619Z,82.56
2019-03-23T07:22:04.071Z,82.65
2019-03-23T07:25:14.393Z,82.17
2019-03-23T07:28:23.717Z,81.63
2019-03-23T07:31:43.476Z,81.20
2019-03-23T07:34:52.913Z,81.55
2019-03-23T07:38:02.238Z,81.36
2019-03-23T07:41:22.127Z,80.46
2019-03-23T07:44:31.568Z,80.37
2019-03-23T07:47:40.874Z,79.85
2019-03-23T07:51:00.709Z,79.96
2019-03-23T07:54:10.029Z,79.99
2019-03-23T07:57:19.420Z,79.69
2019-03-23T08:00:40.977Z,79.42
2019-03-23T08:03:50.326Z,79.44
2019-03-23T08:06:59.986Z,79.19
2019-03-23T08:10:10.101Z,79.04
2019-03-23T08:13:29.932Z,78.53
2019-03-23T08:16:39.333Z,78.77
2019-03-23T08:19:48.763Z,78.43
2019-03-23T08:22:58.198Z,78.15
2019-03-23T08:26:08.027Z,77.71
2019-03-23T08:29:17.467Z,77.73
2019-03-23T08:32:26.872Z,77.57
2019-03-23T08:35:46.810Z,77.27
2019-03-23T08:38:56.287Z,77.56
2019-03-23T08:42:05.694Z,77.71
2019-03-23T08:45:15.463Z,77.56
2019-03-23T08:48:24.896Z,77.50
2019-03-23T08:51:34.501Z,77.43
2019-03-23T08:54:43.959Z,77.39
2019-03-23T08:58:03.728Z,77.29
2019-03-23T09:01:13.496Z,77.44
2019-03-23T09:04:22.922Z,77.37
2019-03-23T09:07:32.239Z,77.52
2019-03-23T09:10:41.677Z,77.72
2019-03-23T09:14:01.492Z,77.78
2019-03-23T09:17:11.158Z,77.27
2019-03-23T09:20:20.591Z,77.29
2019-03-23T09:23:29.994Z,76.22
2019-03-23T09:26:39.587Z,76.84
2019-03-23T09:29:59.263Z,76.16
2019-03-23T09:33:08.854Z,75.90
2019-03-23T09:36:18.474Z,76.34
2019-03-23T09:39:27.895Z,76.38
2019-03-23T09:42:37.306Z,76.18
2019-03-23T09:45:57.035Z,75.71
2019-03-23T09:49:06.487Z,75.88
2019-03-23T09:52:15.935Z,76.14
2019-03-23T09:55:25.479Z,76.13
2019-03-23T09:58:34.909Z,76.41
2019-03-23T10:01:54.806Z,76.60
2019-03-23T10:05:04.269Z,76.61
2019-03-23T10:08:13.792Z,76.08
2019-03-23T10:11:23.348Z,75.19
2019-03-23T10:14:32.858Z,76.09
2019-03-23T10:17:52.544Z,75.68
2019-03-23T10:21:01.892Z,76.05
2019-03-23T10:24:11.453Z,76.15
2019-03-23T10:27:20.920Z,75.56
2019-03-23T10:30:30.355Z,75.79
2019-03-23T10:33:50.312Z,76.00
2019-03-23T10:36:59.823Z,76.04
2019-03-23T10:40:09.878Z,76.28
2019-03-23T10:43:19.253Z,75.94
2019-03-23T10:46:28.718Z,76.30
2019-03-23T10:49:38.256Z,75.97
2019-03-23T10:53:06.861Z,76.07
2019-03-23T10:56:18.590Z,75.61
2019-03-23T10:59:39.515Z,75.95
2019-03-23T11:02:59.459Z,75.46
2019-03-23T11:06:09.694Z,75.50
2019-03-23T11:09:29.220Z,75.44
2019-03-23T11:12:38.736Z,75.68
2019-03-23T11:15:48.157Z,75.26
2019-03-23T11:19:13.378Z,74.68
2019-03-23T11:22:19.182Z,74.70
2019-03-23T11:25:28.598Z,74.43
2019-03-23T11:28:37.961Z,74.35
2019-03-23T11:31:47.435Z,74.80
2019-03-23T11:35:08.716Z,74.96
2019-03-23T11:38:18.187Z,74.47
2019-03-23T11:41:27.600Z,74.76
2019-03-23T11:44:47.313Z,74.58
2019-03-23T11:47:56.781Z,74.77
2019-03-23T11:51:06.186Z,74.77
2019-03-23T11:54:25.908Z,74.87
2019-03-23T11:57:35.221Z,74.98
2019-03-23T12:00:44.583Z,75.07
2019-03-23T12:03:53.926Z,75.62
2019-03-23T12:07:03.240Z,75.57
2019-03-23T12:10:14.390Z,75.80
2019-03-23T12:13:33.994Z,75.61
2019-03-23T12:16:43.447Z,75.83
2019-03-23T12:19:53.382Z,75.97
2019-03-23T12:23:02.714Z,75.91
2019-03-23T12:26:12.135Z,76.61
2019-03-23T12:29:31.822Z,76.83
2019-03-23T12:32:41.308Z,76.80
2019-03-23T12:35:50.738Z,78.01
2019-03-23T12:39:10.398Z,77.88
2019-03-23T12:42:19.762Z,77.60
2019-03-23T12:45:29.624Z,77.56
2019-03-23T12:48:39.780Z,77.73
2019-03-23T12:52:00.256Z,77.48
2019-03-23T12:55:20.399Z,76.74
2019-03-23T12:58:29.822Z,75.58
2019-03-23T13:01:39.264Z,74.94
2019-03-23T13:04:48.846Z,74.32
2019-03-23T13:07:58.312Z,73.73
2019-03-23T13:11:23.240Z,72.40
2019-03-23T13:14:29.123Z,72.38
2019-03-23T13:17:38.468Z,71.02
2019-03-23T13:20:58.174Z,69.99
2019-03-23T13:24:07.475Z,69.32
2019-03-23T13:27:18.279Z,67.71
2019-03-23T13:30:27.758Z,66.47
2019-03-23T13:33:37.111Z,64.58
2019-03-23T13:36:46.501Z,62.49
2019-03-23T13:40:07.274Z,61.14
2019-03-23T13:43:16.640Z,61.95
2019-03-23T13:46:26.141Z,60.55
2019-03-23T13:49:35.455Z,61.07
2019-03-23T13:52:44.823Z,60.90
2019-03-23T13:55:54.228Z,60.15
2019-03-23T13:59:03.647Z,60.15
2019-03-23T14:02:23.259Z,59.21
2019-03-23T14:05:33.586Z,58.94
2019-03-23T14:08:42.888Z,58.46
2019-03-23T14:11:55.174Z,57.63
2019-03-23T14:15:03.340Z,58.19
2019-03-23T14:18:12.773Z,56.51
2019-03-23T14:21:22.228Z,56.85
2019-03-23T14:24:42.206Z,56.00
2019-03-23T14:27:51.518Z,54.79
2019-03-23T14:31:00.846Z,53.67
2019-03-23T14:34:20.553Z,52.87
2019-03-23T14:37:29.883Z,53.33
2019-03-23T14:40:41.310Z,53.82
2019-03-23T14:44:00.710Z,53.13
2019-03-23T14:47:10.138Z,53.16
2019-03-23T14:50:19.749Z,52.63
2019-03-23T14:53:39.269Z,52.06
2019-03-23T14:56:48.989Z,52.58
2019-03-23T14:59:58.403Z,53.13
2019-03-23T15:03:07.860Z,53.65
2019-03-23T15:06:17.265Z,53.08
2019-03-23T15:09:37.045Z,51.36
2019-03-23T15:12:46.576Z,50.85
2019-03-23T15:15:55.987Z,52.13
2019-03-23T15:19:15.835Z,51.07
2019-03-23T15:22:25.314Z,50.99
2019-03-23T15:25:34.747Z,52.17
2019-03-23T15:28:44.068Z,52.95
2019-03-23T15:31:53.482Z,52.68
2019-03-23T15:35:02.815Z,53.07
2019-03-23T15:38:12.221Z,53.12
2019-03-23T15:41:21.665Z,53.95
2019-03-23T15:44:41.334Z,54.36
2019-03-23T15:47:50.620Z,55.02
2019-03-23T15:50:59.936Z,56.48
2019-03-23T15:54:09.262Z,57.45
2019-03-23T15:57:18.632Z,57.75
2019-03-23T16:00:28.059Z,58.38
2019-03-23T16:03:37.396Z,57.50
2019-03-23T16:06:46.742Z,57.87
2019-03-23T16:09:56.071Z,57.83
2019-03-23T16:13:05.583Z,58.70
2019-03-23T16:16:15.029Z,59.25
2019-03-23T16:19:24.433Z,60.02
2019-03-23T16:22:44.054Z,61.29
2019-03-23T16:25:53.788Z,62.04
2019-03-23T16:29:03.121Z,62.41
2019-03-23T16:32:12.524Z,62.74
2019-03-23T16:35:21.932Z,62.92
2019-03-23T16:38:41.655Z,62.80
2019-03-23T16:41:51.112Z,63.05
2019-03-23T16:45:00.538Z,62.72
2019-03-23T16:48:20.328Z,63.64
2019-03-23T16:51:29.724Z,63.93
2019-03-23T16:54:39.160Z,63.98
2019-03-23T16:57:58.806Z,64.56
2019-03-23T17:01:08.176Z,64.55
2019-03-23T17:04:17.650Z,64.45
2019-03-23T17:07:37.479Z,65.14
2019-03-23T17:10:46.869Z,65.30
2019-03-23T17:13:56.264Z,64.72
2019-03-23T17:17:15.897Z,63.02
2019-03-23T17:20:25.441Z,62.98
2019-03-23T17:23:34.772Z,62.08
2019-03-23T17:26:54.508Z,62.46
2019-03-23T17:30:03.985Z,62.99
2019-03-23T17:33:13.418Z,63.45
2019-03-23T17:36:33.133Z,64.06
2019-03-23T17:39:42.677Z,64.62
2019-03-23T17:42:52.298Z,65.33
2019-03-23T17:46:01.601Z,66.02
2019-03-23T17:49:11.034Z,66.42
2019-03-23T17:52:30.789Z,66.43
2019-03-23T17:55:40.181Z,67.07
2019-03-23T17:58:49.509Z,67.40
2019-03-23T18:02:09.665Z,67.55
2019-03-23T18:05:19.093Z,67.74
2019-03-23T18:08:28.407Z,68.15
2019-03-23T18:11:50.802Z,68.23
2019-03-23T18:15:12.678Z,67.71
2019-03-23T18:18:22.114Z,68.46
2019-03-23T18:21:41.994Z,68.44
2019-03-23T18:24:51.565Z,68.32
2019-03-23T18:28:02.420Z,68.73
2019-03-23T18:31:22.094Z,69.30
2019-03-23T18:34:31.436Z,69.42
2019-03-23T18:37:41.811Z,69.71
2019-03-23T18:40:51.130Z,70.26
2019-03-23T18:44:00.589Z,70.72
2019-03-23T18:47:10.078Z,71.29
2019-03-23T18:50:19.501Z,71.73
2019-03-23T18:53:39.078Z,72.20
2019-03-23T18:56:48.376Z,72.20
2019-03-23T18:59:57.881Z,72.61
2019-03-23T19:03:07.335Z,72.66
2019-03-23T19:06:17.501Z,72.94
2019-03-23T19:09:26.807Z,73.00
2019-03-23T19:12:36.936Z,73.54
2019-03-23T19:15:46.254Z,73.75
2019-03-23T19:18:55.592Z,73.69
2019-03-23T19:22:15.255Z,73.66
2019-03-23T19:25:24.680Z,73.81
2019-03-23T19:28:34.096Z,73.99
2019-03-23T19:31:53.950Z,74.00
2019-03-23T19:35:03.274Z,74.51
2019-03-23T19:38:12.551Z,74.34
2019-03-23T19:41:21.861Z,74.37
2019-03-23T19:44:31.186Z,74.28
2019-03-23T19:47:40.466Z,74.84
2019-03-23T19:50:49.785Z,74.76
2019-03-23T19:53:59.177Z,75.63
2019-03-23T19:57:08.639Z,76.04
2019-03-23T20:00:28.383Z,76.29
2019-03-23T20:03:37.685Z,76.37
2019-03-23T20:06:47.011Z,76.81
2019-03-23T20:09:56.402Z,76.85
2019-03-23T20:13:05.751Z,76.61
2019-03-23T20:16:15.100Z,76.69
2019-03-23T20:19:24.378Z,77.08
2019-03-23T20:22:33.708Z,77.43
2019-03-23T20:25:43.027Z,77.36
2019-03-23T20:28:52.310Z,77.53
2019-03-23T20:32:01.617Z,77.52
2019-03-23T20:35:11.302Z,77.76
2019-03-23T20:38:30.971Z,77.93
2019-03-23T20:41:40.385Z,78.48
2019-03-23T20:44:49.738Z,78.12
2019-03-23T20:48:09.651Z,77.98
2019-03-23T20:51:19.276Z,77.74
2019-03-23T20:54:29.155Z,77.78
2019-03-23T20:57:38.691Z,78.03
2019-03-23T21:00:48.133Z,78.06
2019-03-23T21:03:57.422Z,77.68
2019-03-23T21:07:06.755Z,77.36
2019-03-23T21:10:16.152Z,77.31
2019-03-23T21:13:25.480Z,77.46
2019-03-23T21:16:34.800Z,77.82
2019-03-23T21:19:54.680Z,77.75
2019-03-23T21:23:04.129Z,77.76
2019-03-23T21:26:14.127Z,77.65
2019-03-23T21:29:23.543Z,77.84
2019-03-23T21:32:32.932Z,77.65
2019-03-23T21:35:52.420Z,77.95
2019-03-23T21:39:01.749Z,78.11
2019-03-23T21:42:11.156Z,78.02
2019-03-23T21:45:20.576Z,77.77
2019-03-23T21:48:29.984Z,78.20
2019-03-23T21:51:39.356Z,78.12
2019-03-23T21:54:58.971Z,77.99
2019-03-23T21:58:08.383Z,78.23
2019-03-23T22:01:17.765Z,78.04
2019-03-23T22:04:27.099Z,78.32
2019-03-23T22:07:36.420Z,77.92
2019-03-23T22:10:45.731Z,78.20
2019-03-23T22:13:55.131Z,78.34
2019-03-23T22:17:05.850Z,78.10
2019-03-23T22:20:15.404Z,78.09
2019-03-23T22:23:35.171Z,77.92
2019-03-23T22:26:44.576Z,78.14
2019-03-23T22:29:53.902Z,78.08
2019-03-23T22:33:05.514Z,78.32
2019-03-23T22:36:14.828Z,77.89
2019-03-23T22:39:34.538Z,78.32
2019-03-23T22:42:43.814Z,77.90
2019-03-23T22:45:53.136Z,78.18
2019-03-23T22:49:02.448Z,78.33
2019-03-23T22:52:11.824Z,78.72
2019-03-23T22:55:21.255Z,79.08
2019-03-23T22:58:30.617Z,78.97
2019-03-23T23:01:40.151Z,78.76
2019-03-23T23:04:49.609Z,78.84
2019-03-23T23:07:59.001Z,77.81
2019-03-23T23:11:08.511Z,77.85
2019-03-23T23:14:28.296Z,78.23
2019-03-23T23:17:37.602Z,78.44
2019-03-23T23:20:47.098Z,78.35
2019-03-23T23:24:07.139Z,78.59
2019-03-23T23:27:17.443Z,78.39
2019-03-23T23:30:26.959Z,78.56
2019-03-23T23:33:36.346Z,78.58
2019-03-23T23:36:45.867Z,78.75
2019-03-23T23:39:55.309Z,78.73
2019-03-23T23:43:14.851Z,78.53
2019-03-23T23:46:24.283Z,77.82
2019-03-23T23:49:33.684Z,78.11
2019-03-23T23:52:53.402Z,78.70
2019-03-23T23:56:02.910Z,78.67
2019-03-23T23:59:12.281Z,78.83
